Stewartville, Minnesota
Current Conditions -  °F | °C
As of 8:54 PM on Thursday 27 Nov 2014 (Local Time) from KRST Reporting Station
Overcast Overcast  
Wind Chill: -10°   Ceiling: 10000
Heat Index:   Visibility: 10mi
Dew Point: -1°   Wind: 10mph
Humidity: 76%   Direction: 130°SE
Pressure: 30.28"   Gusts: NA
Location:  43.86°N, 92.49°W
Report Text: KRST 280254Z 13009KT 10SM OVC100 M15/M18 A3028 RMK AO2 SLP293 T11501183 58025
Loading
Personal Weather Stations






























Interactive Weather Map New forecast layout! Learn more

10-Day Weather Forecast

Advertisements
Track Severe Weather on mobile